SAZ212 EPWA-LSZH
Flight info
| Callsign | SAZ212 |
|---|---|
| Flight time | 1h 37m |
| Altitude | 23000 |
| Route | SOXER DCT VAMPU N869 TOMTI DCT KONAR DCT OKG N869 TEDGO T724 SOLGO/N0395F190 T724 RILAX |
| Aircraft | CL60/M-SADE3FGHIJ3J4J7P2RWXY/HB1D1 |
Departure
| Time | 2026-05-04 06:56 |
|---|---|
| Airport | Warsaw Chopin Airport (EPWA) |
Arrival
| Time | 2026-05-04 08:33 |
|---|---|
| Airport | Zürich Airport (LSZH) |
| Time | Latitude | Longitude | Altitude | Speed | Heading |
|---|---|---|---|---|---|
| 2026-05-04 06:36 | 52.16788 | 20.97019 | 333 ft | 0 kts | 277° |
| 2026-05-04 06:48 | 52.16618 | 20.97217 | 336 ft | 14 kts | 115° |
| 2026-05-04 06:48 | 52.16569 | 20.97389 | 336 ft | 18 kts | 114° |
| 2026-05-04 06:49 | 52.16512 | 20.97594 | 336 ft | 21 kts | 115° |
| 2026-05-04 06:50 | 52.16208 | 20.98456 | 334 ft | 0 kts | 202° |
| 2026-05-04 06:54 | 52.16205 | 20.98454 | 334 ft | 2 kts | 202° |
| 2026-05-04 06:55 | 52.16141 | 20.98406 | 333 ft | 20 kts | 217° |
| 2026-05-04 06:55 | 52.16164 | 20.98174 | 333 ft | 47 kts | 292° |
| 2026-05-04 06:55 | 52.16434 | 20.97199 | 337 ft | 141 kts | 293° |
| 2026-05-04 06:55 | 52.16942 | 20.95517 | 782 ft | 186 kts | 293° |
| 2026-05-04 06:56 | 52.17519 | 20.93571 | 1511 ft | 197 kts | 289° |
| 2026-05-04 06:57 | 52.19051 | 20.75585 | 6737 ft | 263 kts | 281° |
| 2026-05-04 06:58 | 52.19456 | 20.72710 | 7478 ft | 266 kts | 280° |
| 2026-05-04 06:58 | 52.19570 | 20.69749 | 8241 ft | 265 kts | 259° |
| 2026-05-04 06:58 | 52.19028 | 20.66863 | 8999 ft | 269 kts | 250° |
| 2026-05-04 06:58 | 52.18396 | 20.64032 | 9742 ft | 271 kts | 250° |
| 2026-05-04 06:59 | 52.17759 | 20.61154 | 10502 ft | 272 kts | 250° |
| 2026-05-04 06:59 | 52.17122 | 20.58278 | 11243 ft | 275 kts | 250° |
| 2026-05-04 06:59 | 52.16476 | 20.55363 | 12002 ft | 278 kts | 250° |
| 2026-05-04 06:59 | 52.15817 | 20.52399 | 12762 ft | 281 kts | 250° |
| 2026-05-04 07:01 | 52.11528 | 20.30341 | 19660 ft | 310 kts | 252° |
| 2026-05-04 07:01 | 52.10883 | 20.26981 | 20510 ft | 316 kts | 252° |
| 2026-05-04 07:02 | 52.10228 | 20.23581 | 21337 ft | 322 kts | 253° |
| 2026-05-04 07:02 | 52.09554 | 20.20084 | 22166 ft | 327 kts | 253° |
| 2026-05-04 07:02 | 52.08870 | 20.16541 | 22749 ft | 339 kts | 253° |
| 2026-05-04 07:02 | 52.08150 | 20.12817 | 22952 ft | 360 kts | 253° |
| 2026-05-04 07:03 | 52.07366 | 20.08769 | 22969 ft | 385 kts | 253° |
| 2026-05-04 07:03 | 52.06554 | 20.04584 | 22959 ft | 401 kts | 252° |
| 2026-05-04 07:03 | 52.05706 | 20.00228 | 22971 ft | 404 kts | 252° |
| 2026-05-04 07:03 | 52.04860 | 19.95890 | 22983 ft | 402 kts | 252° |
| 2026-05-04 07:04 | 52.03976 | 19.91612 | 22983 ft | 401 kts | 251° |
| 2026-05-04 07:04 | 52.03061 | 19.87368 | 22977 ft | 400 kts | 251° |
| 2026-05-04 07:04 | 52.02143 | 19.83124 | 22982 ft | 400 kts | 251° |
| 2026-05-04 07:04 | 52.01228 | 19.78898 | 22982 ft | 400 kts | 251° |
| 2026-05-04 07:05 | 52.00303 | 19.74640 | 22986 ft | 400 kts | 251° |
| 2026-05-04 07:05 | 51.99372 | 19.70362 | 22985 ft | 401 kts | 251° |
| 2026-05-04 07:05 | 51.98447 | 19.66116 | 22978 ft | 401 kts | 251° |
| 2026-05-04 07:05 | 51.97526 | 19.61903 | 22979 ft | 400 kts | 251° |
| 2026-05-04 07:06 | 51.95673 | 19.53449 | 22974 ft | 399 kts | 251° |
| 2026-05-04 07:06 | 51.94738 | 19.49193 | 22976 ft | 399 kts | 251° |
| 2026-05-04 07:06 | 51.93816 | 19.45008 | 22979 ft | 399 kts | 251° |
| 2026-05-04 07:07 | 51.92876 | 19.40751 | 22972 ft | 400 kts | 251° |
| 2026-05-04 07:08 | 51.86307 | 19.11217 | 22968 ft | 400 kts | 250° |
| 2026-05-04 07:09 | 51.85384 | 19.06987 | 22967 ft | 400 kts | 251° |
| 2026-05-04 07:09 | 51.84461 | 19.02762 | 22967 ft | 399 kts | 250° |
| 2026-05-04 07:09 | 51.83545 | 18.98578 | 22956 ft | 399 kts | 250° |
| 2026-05-04 07:09 | 51.82621 | 18.94365 | 22958 ft | 399 kts | 250° |
| 2026-05-04 07:10 | 51.81697 | 18.90162 | 22969 ft | 399 kts | 251° |
| 2026-05-04 07:10 | 51.80772 | 18.85963 | 22968 ft | 399 kts | 251° |
| 2026-05-04 07:12 | 51.74240 | 18.56518 | 22963 ft | 399 kts | 251° |
| 2026-05-04 07:12 | 51.73299 | 18.52310 | 22967 ft | 399 kts | 251° |
| 2026-05-04 07:12 | 51.72355 | 18.48094 | 22979 ft | 400 kts | 251° |
| 2026-05-04 07:12 | 51.71417 | 18.43917 | 22972 ft | 400 kts | 251° |
| 2026-05-04 07:13 | 51.70463 | 18.39676 | 22973 ft | 400 kts | 251° |
| 2026-05-04 07:13 | 51.69521 | 18.35500 | 22969 ft | 400 kts | 251° |
| 2026-05-04 07:13 | 51.68576 | 18.31313 | 22976 ft | 400 kts | 250° |
| 2026-05-04 07:14 | 51.64771 | 18.14553 | 22978 ft | 400 kts | 250° |
| 2026-05-04 07:14 | 51.63807 | 18.10316 | 22978 ft | 400 kts | 250° |
| 2026-05-04 07:15 | 51.62856 | 18.06146 | 22976 ft | 400 kts | 250° |
| 2026-05-04 07:15 | 51.61904 | 18.01981 | 22976 ft | 400 kts | 250° |
| 2026-05-04 07:15 | 51.60937 | 17.97758 | 22973 ft | 400 kts | 250° |
| 2026-05-04 07:15 | 51.59974 | 17.93565 | 22984 ft | 400 kts | 250° |
| 2026-05-04 07:16 | 51.59017 | 17.89421 | 22972 ft | 400 kts | 250° |
| 2026-05-04 07:16 | 51.58044 | 17.85211 | 22976 ft | 399 kts | 250° |
| 2026-05-04 07:16 | 51.57082 | 17.81052 | 22983 ft | 399 kts | 250° |
| 2026-05-04 07:16 | 51.56115 | 17.76876 | 22971 ft | 400 kts | 250° |
| 2026-05-04 07:17 | 51.55156 | 17.72748 | 22973 ft | 399 kts | 250° |
| 2026-05-04 07:17 | 51.54187 | 17.68582 | 22982 ft | 400 kts | 250° |
| 2026-05-04 07:17 | 51.53218 | 17.64425 | 22969 ft | 400 kts | 250° |
| 2026-05-04 07:17 | 51.52242 | 17.60243 | 22973 ft | 400 kts | 250° |
| 2026-05-04 07:18 | 51.51266 | 17.56071 | 22967 ft | 400 kts | 250° |
| 2026-05-04 07:18 | 51.50285 | 17.51886 | 22968 ft | 400 kts | 250° |
| 2026-05-04 07:18 | 51.49309 | 17.47728 | 22965 ft | 400 kts | 250° |
| 2026-05-04 07:18 | 51.48338 | 17.43601 | 22970 ft | 400 kts | 250° |
| 2026-05-04 07:19 | 51.47348 | 17.39400 | 22969 ft | 400 kts | 250° |
| 2026-05-04 07:19 | 51.46365 | 17.35240 | 22965 ft | 400 kts | 250° |
| 2026-05-04 07:19 | 51.45380 | 17.31080 | 22964 ft | 400 kts | 249° |
| 2026-05-04 07:19 | 51.44395 | 17.26925 | 22968 ft | 399 kts | 250° |
| 2026-05-04 07:20 | 51.43392 | 17.22705 | 22968 ft | 399 kts | 250° |
| 2026-05-04 07:20 | 51.42405 | 17.18557 | 22965 ft | 399 kts | 249° |
| 2026-05-04 07:20 | 51.41413 | 17.14399 | 22969 ft | 399 kts | 250° |
| 2026-05-04 07:20 | 51.40419 | 17.10240 | 22967 ft | 400 kts | 250° |
| 2026-05-04 07:22 | 51.33401 | 16.81101 | 22963 ft | 399 kts | 250° |
| 2026-05-04 07:22 | 51.32393 | 16.76945 | 22963 ft | 399 kts | 249° |
| 2026-05-04 07:23 | 51.31397 | 16.72846 | 22965 ft | 399 kts | 250° |
| 2026-05-04 07:23 | 51.30399 | 16.68753 | 22967 ft | 398 kts | 250° |
| 2026-05-04 07:23 | 51.29394 | 16.64635 | 22970 ft | 398 kts | 250° |
| 2026-05-04 07:23 | 51.28390 | 16.60528 | 22968 ft | 398 kts | 250° |
| 2026-05-04 07:24 | 51.27374 | 16.56380 | 22960 ft | 399 kts | 249° |
| 2026-05-04 07:24 | 51.26368 | 16.52281 | 22960 ft | 398 kts | 250° |
| 2026-05-04 07:24 | 51.25363 | 16.48191 | 22971 ft | 398 kts | 250° |
| 2026-05-04 07:24 | 51.24350 | 16.44078 | 22970 ft | 398 kts | 249° |
| 2026-05-04 07:25 | 51.23338 | 16.39979 | 22968 ft | 399 kts | 249° |
| 2026-05-04 07:26 | 51.16225 | 16.11368 | 22982 ft | 398 kts | 249° |
| 2026-05-04 07:27 | 51.15196 | 16.07261 | 22990 ft | 397 kts | 249° |
| 2026-05-04 07:27 | 51.14183 | 16.03225 | 22989 ft | 397 kts | 249° |
| 2026-05-04 07:27 | 51.13152 | 15.99123 | 22999 ft | 397 kts | 249° |
| 2026-05-04 07:27 | 51.12135 | 15.95082 | 22995 ft | 397 kts | 249° |
| 2026-05-04 07:28 | 51.11108 | 15.91012 | 23003 ft | 397 kts | 249° |
| 2026-05-04 07:28 | 51.10086 | 15.86972 | 22999 ft | 397 kts | 249° |
| 2026-05-04 07:28 | 51.09060 | 15.82916 | 22991 ft | 398 kts | 249° |
| 2026-05-04 07:28 | 51.08025 | 15.78839 | 22993 ft | 397 kts | 249° |
| 2026-05-04 07:29 | 51.06998 | 15.74798 | 22985 ft | 397 kts | 249° |
| 2026-05-04 07:29 | 51.05956 | 15.70704 | 22984 ft | 397 kts | 249° |
| 2026-05-04 07:29 | 51.04930 | 15.66682 | 22988 ft | 397 kts | 249° |
| 2026-05-04 07:29 | 51.03886 | 15.62596 | 22984 ft | 397 kts | 249° |
| 2026-05-04 07:30 | 51.02850 | 15.58549 | 22986 ft | 397 kts | 249° |
| 2026-05-04 07:30 | 51.01812 | 15.54497 | 22987 ft | 397 kts | 249° |
| 2026-05-04 07:30 | 51.00785 | 15.50506 | 22988 ft | 397 kts | 248° |
| 2026-05-04 07:30 | 50.99739 | 15.46445 | 22986 ft | 397 kts | 248° |
| 2026-05-04 07:31 | 50.98693 | 15.42391 | 22991 ft | 397 kts | 248° |
| 2026-05-04 07:31 | 50.97660 | 15.38394 | 22988 ft | 397 kts | 248° |
| 2026-05-04 07:33 | 50.91054 | 15.09731 | 22986 ft | 397 kts | 251° |
| 2026-05-04 07:33 | 50.90148 | 15.05580 | 22986 ft | 397 kts | 251° |
| 2026-05-04 07:33 | 50.89251 | 15.01481 | 22988 ft | 397 kts | 251° |
| 2026-05-04 07:33 | 50.88353 | 14.97384 | 22984 ft | 397 kts | 251° |
| 2026-05-04 07:34 | 50.87441 | 14.93235 | 22987 ft | 397 kts | 250° |
| 2026-05-04 07:34 | 50.86536 | 14.89122 | 22988 ft | 397 kts | 250° |
| 2026-05-04 07:34 | 50.85629 | 14.85013 | 22991 ft | 397 kts | 250° |
| 2026-05-04 07:34 | 50.84729 | 14.80938 | 22994 ft | 397 kts | 250° |
| 2026-05-04 07:35 | 50.83822 | 14.76844 | 22996 ft | 397 kts | 250° |
| 2026-05-04 07:35 | 50.82907 | 14.72721 | 23002 ft | 397 kts | 250° |
| 2026-05-04 07:35 | 50.81986 | 14.68580 | 22999 ft | 397 kts | 250° |
| 2026-05-04 07:35 | 50.81078 | 14.64504 | 22995 ft | 397 kts | 250° |
| 2026-05-04 07:36 | 50.80165 | 14.60410 | 22997 ft | 398 kts | 250° |
| 2026-05-04 07:36 | 50.79242 | 14.56284 | 22996 ft | 398 kts | 250° |
| 2026-05-04 07:38 | 50.72769 | 14.27567 | 22986 ft | 398 kts | 249° |
| 2026-05-04 07:38 | 50.71851 | 14.23526 | 22986 ft | 398 kts | 250° |
| 2026-05-04 07:38 | 50.70911 | 14.19399 | 22987 ft | 398 kts | 250° |
| 2026-05-04 07:38 | 50.69979 | 14.15311 | 22987 ft | 398 kts | 250° |
| 2026-05-04 07:39 | 50.69041 | 14.11203 | 22987 ft | 397 kts | 250° |
| 2026-05-04 07:39 | 50.68117 | 14.07168 | 22985 ft | 397 kts | 250° |
| 2026-05-04 07:39 | 50.67177 | 14.03071 | 22986 ft | 397 kts | 250° |
| 2026-05-04 07:39 | 50.66235 | 13.98971 | 22988 ft | 396 kts | 250° |
| 2026-05-04 07:40 | 50.65297 | 13.94898 | 22990 ft | 397 kts | 250° |
| 2026-05-04 07:40 | 50.64362 | 13.90844 | 22990 ft | 397 kts | 249° |
| 2026-05-04 07:40 | 50.63424 | 13.86786 | 22991 ft | 397 kts | 249° |
| 2026-05-04 07:40 | 50.62473 | 13.82682 | 22994 ft | 397 kts | 249° |
| 2026-05-04 07:41 | 50.61528 | 13.78609 | 23003 ft | 397 kts | 249° |
| 2026-05-04 07:41 | 50.60582 | 13.74539 | 22996 ft | 398 kts | 249° |
| 2026-05-04 07:41 | 50.59638 | 13.70486 | 22992 ft | 398 kts | 249° |
| 2026-05-04 07:41 | 50.58678 | 13.66370 | 22993 ft | 398 kts | 249° |
| 2026-05-04 07:42 | 50.57728 | 13.62308 | 22995 ft | 399 kts | 249° |
| 2026-05-04 07:42 | 50.56779 | 13.58256 | 22994 ft | 399 kts | 249° |
| 2026-05-04 07:42 | 50.55817 | 13.54157 | 22992 ft | 399 kts | 249° |
| 2026-05-04 07:42 | 50.54857 | 13.50074 | 22988 ft | 399 kts | 249° |
| 2026-05-04 07:43 | 50.53894 | 13.45988 | 22995 ft | 398 kts | 249° |
| 2026-05-04 07:43 | 50.52942 | 13.41953 | 22995 ft | 398 kts | 249° |
| 2026-05-04 07:43 | 50.51978 | 13.37877 | 22996 ft | 398 kts | 249° |
| 2026-05-04 07:43 | 50.51018 | 13.33822 | 23000 ft | 397 kts | 249° |
| 2026-05-04 07:44 | 50.50058 | 13.29778 | 23005 ft | 397 kts | 249° |
| 2026-05-04 07:44 | 50.49088 | 13.25697 | 23009 ft | 398 kts | 249° |
| 2026-05-04 07:44 | 50.48128 | 13.21672 | 23013 ft | 398 kts | 249° |
| 2026-05-04 07:44 | 50.47160 | 13.17614 | 23013 ft | 398 kts | 249° |
| 2026-05-04 07:45 | 50.46182 | 13.13526 | 23010 ft | 398 kts | 249° |
| 2026-05-04 07:45 | 50.45206 | 13.09459 | 23010 ft | 398 kts | 248° |
| 2026-05-04 07:45 | 50.43938 | 13.05645 | 23019 ft | 397 kts | 234° |
| 2026-05-04 07:45 | 50.42149 | 13.02362 | 23009 ft | 398 kts | 228° |
| 2026-05-04 07:46 | 50.40325 | 12.99180 | 23015 ft | 398 kts | 228° |
| 2026-05-04 07:46 | 50.38463 | 12.95920 | 23017 ft | 398 kts | 228° |
| 2026-05-04 07:46 | 50.36634 | 12.92723 | 23018 ft | 399 kts | 228° |
| 2026-05-04 07:46 | 50.34781 | 12.89486 | 23019 ft | 399 kts | 228° |
| 2026-05-04 07:47 | 50.32925 | 12.86247 | 23017 ft | 399 kts | 228° |
| 2026-05-04 07:47 | 50.31090 | 12.83049 | 23017 ft | 399 kts | 228° |
| 2026-05-04 07:47 | 50.29227 | 12.79807 | 23019 ft | 398 kts | 229° |
| 2026-05-04 07:49 | 50.16300 | 12.57410 | 23017 ft | 399 kts | 228° |
| 2026-05-04 07:49 | 50.14438 | 12.54200 | 23020 ft | 399 kts | 228° |
| 2026-05-04 07:49 | 50.12565 | 12.50975 | 23024 ft | 399 kts | 228° |
| 2026-05-04 07:50 | 50.10730 | 12.47819 | 23019 ft | 400 kts | 228° |
| 2026-05-04 07:50 | 50.08847 | 12.44584 | 23017 ft | 400 kts | 228° |
| 2026-05-04 07:50 | 50.07049 | 12.41349 | 23020 ft | 399 kts | 234° |
| 2026-05-04 07:50 | 50.05747 | 12.37560 | 23018 ft | 400 kts | 248° |
| 2026-05-04 07:51 | 50.04753 | 12.33553 | 23010 ft | 400 kts | 248° |
| 2026-05-04 07:51 | 50.03748 | 12.29522 | 23015 ft | 400 kts | 248° |
| 2026-05-04 07:51 | 50.02737 | 12.25486 | 23017 ft | 399 kts | 248° |
| 2026-05-04 07:51 | 50.01740 | 12.21509 | 23021 ft | 399 kts | 248° |
| 2026-05-04 07:52 | 50.00727 | 12.17476 | 23020 ft | 399 kts | 248° |
| 2026-05-04 07:52 | 49.99714 | 12.13450 | 23022 ft | 399 kts | 248° |
| 2026-05-04 07:52 | 49.98715 | 12.09487 | 23024 ft | 399 kts | 248° |
| 2026-05-04 07:52 | 49.97707 | 12.05495 | 23018 ft | 400 kts | 248° |
| 2026-05-04 07:53 | 49.96688 | 12.01469 | 23023 ft | 400 kts | 248° |
| 2026-05-04 07:54 | 49.89612 | 11.73394 | 23018 ft | 400 kts | 248° |
| 2026-05-04 07:55 | 49.88595 | 11.69364 | 23016 ft | 400 kts | 248° |
| 2026-05-04 07:55 | 49.87633 | 11.65356 | 23012 ft | 400 kts | 250° |
| 2026-05-04 07:55 | 49.86680 | 11.61282 | 23011 ft | 399 kts | 250° |
| 2026-05-04 07:55 | 49.85737 | 11.57267 | 23011 ft | 399 kts | 250° |
| 2026-05-04 07:56 | 49.84761 | 11.53294 | 23011 ft | 399 kts | 248° |
| 2026-05-04 07:56 | 49.83707 | 11.49293 | 23009 ft | 399 kts | 248° |
| 2026-05-04 07:56 | 49.82664 | 11.45344 | 23010 ft | 400 kts | 248° |
| 2026-05-04 07:56 | 49.81611 | 11.41359 | 23009 ft | 400 kts | 248° |
| 2026-05-04 07:57 | 49.80562 | 11.37364 | 23009 ft | 400 kts | 248° |
| 2026-05-04 07:57 | 49.79568 | 11.33370 | 23010 ft | 400 kts | 248° |
| 2026-05-04 07:57 | 49.78577 | 11.29370 | 23007 ft | 400 kts | 248° |
| 2026-05-04 07:57 | 49.77577 | 11.25356 | 23008 ft | 400 kts | 247° |
| 2026-05-04 07:58 | 49.76253 | 11.21604 | 23019 ft | 399 kts | 233° |
| 2026-05-04 07:58 | 49.74399 | 11.18446 | 22997 ft | 400 kts | 226° |
| 2026-05-04 07:58 | 49.72465 | 11.15367 | 23002 ft | 399 kts | 226° |
| 2026-05-04 07:58 | 49.70546 | 11.12298 | 23009 ft | 399 kts | 226° |
| 2026-05-04 07:59 | 49.68610 | 11.09206 | 23008 ft | 400 kts | 226° |
| 2026-05-04 07:59 | 49.66686 | 11.06136 | 23008 ft | 400 kts | 226° |
| 2026-05-04 07:59 | 49.64749 | 11.03046 | 23009 ft | 400 kts | 226° |
| 2026-05-04 07:59 | 49.62833 | 10.99995 | 23009 ft | 400 kts | 226° |
| 2026-05-04 08:00 | 49.60905 | 10.96929 | 23010 ft | 400 kts | 226° |
| 2026-05-04 08:00 | 49.58962 | 10.93840 | 23013 ft | 400 kts | 226° |
| 2026-05-04 08:00 | 49.57037 | 10.90785 | 23014 ft | 400 kts | 226° |
| 2026-05-04 08:02 | 49.43483 | 10.69380 | 23016 ft | 400 kts | 226° |
| 2026-05-04 08:02 | 49.41533 | 10.66312 | 23020 ft | 399 kts | 226° |
| 2026-05-04 08:02 | 49.39623 | 10.63239 | 23018 ft | 399 kts | 227° |
| 2026-05-04 08:03 | 49.37729 | 10.60171 | 23021 ft | 399 kts | 227° |
| 2026-05-04 08:03 | 49.35814 | 10.57072 | 23022 ft | 399 kts | 227° |
| 2026-05-04 08:03 | 49.33912 | 10.54044 | 23022 ft | 399 kts | 226° |
| 2026-05-04 08:03 | 49.31960 | 10.51050 | 23023 ft | 399 kts | 225° |
| 2026-05-04 08:04 | 49.29989 | 10.48033 | 23021 ft | 399 kts | 226° |
| 2026-05-04 08:04 | 49.28030 | 10.45039 | 23020 ft | 399 kts | 226° |
| 2026-05-04 08:04 | 49.26057 | 10.42027 | 23018 ft | 399 kts | 225° |
| 2026-05-04 08:04 | 49.24098 | 10.39039 | 23012 ft | 399 kts | 225° |
| 2026-05-04 08:05 | 49.22163 | 10.36056 | 23013 ft | 399 kts | 226° |
| 2026-05-04 08:05 | 49.20212 | 10.33024 | 23012 ft | 399 kts | 225° |
| 2026-05-04 08:05 | 49.18279 | 10.30026 | 23014 ft | 398 kts | 225° |
| 2026-05-04 08:05 | 49.16335 | 10.27015 | 23014 ft | 399 kts | 225° |
| 2026-05-04 08:06 | 49.14426 | 10.24016 | 23014 ft | 398 kts | 227° |
| 2026-05-04 08:06 | 49.12642 | 10.20753 | 23013 ft | 398 kts | 231° |
| 2026-05-04 08:06 | 49.10914 | 10.17460 | 23015 ft | 398 kts | 231° |
| 2026-05-04 08:06 | 49.09201 | 10.14208 | 23016 ft | 398 kts | 231° |
| 2026-05-04 08:08 | 48.97073 | 9.91309 | 23016 ft | 397 kts | 231° |
| 2026-05-04 08:08 | 48.95350 | 9.88072 | 23016 ft | 397 kts | 231° |
| 2026-05-04 08:10 | 48.81439 | 9.62087 | 23009 ft | 397 kts | 231° |
| 2026-05-04 08:11 | 48.79695 | 9.58847 | 23005 ft | 398 kts | 231° |
| 2026-05-04 08:11 | 48.76188 | 9.52344 | 23008 ft | 398 kts | 231° |
| 2026-05-04 08:11 | 48.74449 | 9.49127 | 23009 ft | 398 kts | 231° |
| 2026-05-04 08:12 | 48.72689 | 9.45874 | 23009 ft | 399 kts | 231° |
| 2026-05-04 08:12 | 48.70944 | 9.42651 | 23011 ft | 399 kts | 231° |
| 2026-05-04 08:12 | 48.69175 | 9.39389 | 23010 ft | 399 kts | 231° |
| 2026-05-04 08:12 | 48.67429 | 9.36172 | 23009 ft | 398 kts | 231° |
| 2026-05-04 08:13 | 48.65672 | 9.32939 | 23010 ft | 398 kts | 230° |
| 2026-05-04 08:13 | 48.63933 | 9.29744 | 23009 ft | 399 kts | 230° |
| 2026-05-04 08:13 | 48.62142 | 9.26519 | 23009 ft | 399 kts | 227° |
| 2026-05-04 08:13 | 48.60035 | 9.23819 | 23002 ft | 399 kts | 217° |
| 2026-05-04 08:14 | 48.57814 | 9.21349 | 23004 ft | 399 kts | 217° |
| 2026-05-04 08:14 | 48.55585 | 9.18859 | 23005 ft | 400 kts | 217° |
| 2026-05-04 08:14 | 48.53363 | 9.16377 | 23006 ft | 400 kts | 217° |
| 2026-05-04 08:16 | 48.38157 | 8.99460 | 21634 ft | 360 kts | 217° |
| 2026-05-04 08:16 | 48.36167 | 8.97256 | 21174 ft | 351 kts | 217° |
| 2026-05-04 08:16 | 48.34209 | 8.95088 | 20720 ft | 343 kts | 217° |
| 2026-05-04 08:17 | 48.32328 | 8.93008 | 20285 ft | 335 kts | 217° |
| 2026-05-04 08:17 | 48.30464 | 8.90942 | 19791 ft | 330 kts | 217° |
| 2026-05-04 08:17 | 48.28640 | 8.88911 | 19383 ft | 323 kts | 217° |
| 2026-05-04 08:17 | 48.26867 | 8.86938 | 18956 ft | 317 kts | 217° |
| 2026-05-04 08:19 | 48.14925 | 8.73727 | 16125 ft | 302 kts | 216° |
| 2026-05-04 08:19 | 48.13229 | 8.71878 | 15710 ft | 300 kts | 216° |
| 2026-05-04 08:20 | 48.11546 | 8.70045 | 15325 ft | 298 kts | 216° |
| 2026-05-04 08:20 | 48.09887 | 8.68239 | 14926 ft | 298 kts | 216° |
| 2026-05-04 08:20 | 48.08224 | 8.66431 | 14537 ft | 295 kts | 216° |
| 2026-05-04 08:20 | 48.06582 | 8.64647 | 14160 ft | 295 kts | 216° |
| 2026-05-04 08:21 | 48.04919 | 8.62841 | 13768 ft | 293 kts | 216° |
| 2026-05-04 08:21 | 48.03285 | 8.61068 | 13387 ft | 292 kts | 215° |
| 2026-05-04 08:21 | 48.01637 | 8.59281 | 12992 ft | 291 kts | 215° |
| 2026-05-04 08:21 | 48.00001 | 8.57509 | 12611 ft | 290 kts | 215° |
| 2026-05-04 08:22 | 47.98383 | 8.55757 | 12231 ft | 289 kts | 214° |
| 2026-05-04 08:22 | 47.96750 | 8.53992 | 11845 ft | 289 kts | 214° |
| 2026-05-04 08:24 | 47.83900 | 8.48186 | 9237 ft | 276 kts | 190° |
| 2026-05-04 08:24 | 47.82040 | 8.47625 | 8877 ft | 275 kts | 190° |
| 2026-05-04 08:24 | 47.80173 | 8.47061 | 8516 ft | 273 kts | 190° |
| 2026-05-04 08:24 | 47.78317 | 8.46501 | 8159 ft | 270 kts | 190° |
| 2026-05-04 08:25 | 47.76500 | 8.45953 | 7806 ft | 267 kts | 190° |
| 2026-05-04 08:25 | 47.74682 | 8.45405 | 7444 ft | 263 kts | 190° |
| 2026-05-04 08:25 | 47.72909 | 8.44870 | 7113 ft | 259 kts | 190° |
| 2026-05-04 08:25 | 47.71159 | 8.44343 | 6759 ft | 256 kts | 190° |
| 2026-05-04 08:26 | 47.69440 | 8.43698 | 6397 ft | 253 kts | 202° |
| 2026-05-04 08:27 | 47.60337 | 8.37073 | 4045 ft | 194 kts | 141° |
| 2026-05-04 08:28 | 47.59314 | 8.38412 | 3990 ft | 197 kts | 136° |
| 2026-05-04 08:28 | 47.58313 | 8.39786 | 3990 ft | 197 kts | 136° |
| 2026-05-04 08:28 | 47.57308 | 8.41160 | 3777 ft | 196 kts | 136° |
| 2026-05-04 08:28 | 47.56340 | 8.42488 | 3532 ft | 178 kts | 136° |
| 2026-05-04 08:29 | 47.55447 | 8.43712 | 3529 ft | 172 kts | 135° |
| 2026-05-04 08:29 | 47.54587 | 8.44893 | 3514 ft | 169 kts | 135° |
| 2026-05-04 08:29 | 47.53742 | 8.46047 | 3480 ft | 163 kts | 135° |
| 2026-05-04 08:31 | 47.48506 | 8.53196 | 1529 ft | 138 kts | 136° |
| 2026-05-04 08:33 | 47.45932 | 8.56368 | 1383 ft | 15 kts | 138° |
| 2026-05-04 08:33 | 47.45845 | 8.56491 | 1383 ft | 19 kts | 136° |
| 2026-05-04 08:35 | 47.45741 | 8.57167 | 1392 ft | 13 kts | 96° |
| 2026-05-04 08:35 | 47.45750 | 8.57277 | 1396 ft | 9 kts | 40° |
| 2026-05-04 08:35 | 47.45790 | 8.57275 | 1398 ft | 0 kts | 323° |